sensor_id;sensor_type;location;lat;lon;timestamp;P1;durP1;ratioP1;P2;durP2;ratioP2
21266;SDS011;10791;53.108;18.326;2022-08-18T00:01:08;36.72;;;32.63;;
21266;SDS011;10791;53.108;18.326;2022-08-18T00:06:17;39.95;;;31.90;;
21266;SDS011;10791;53.108;18.326;2022-08-18T00:11:20;34.38;;;30.83;;
21266;SDS011;10791;53.108;18.326;2022-08-18T00:16:25;36.85;;;31.67;;
21266;SDS011;10791;53.108;18.326;2022-08-18T00:21:28;39.88;;;33.83;;
21266;SDS011;10791;53.108;18.326;2022-08-18T00:26:31;40.65;;;32.75;;
21266;SDS011;10791;53.108;18.326;2022-08-18T00:31:38;38.50;;;34.08;;
21266;SDS011;10791;53.108;18.326;2022-08-18T00:36:44;37.55;;;33.55;;
21266;SDS011;10791;53.108;18.326;2022-08-18T00:41:47;34.40;;;30.77;;
21266;SDS011;10791;53.108;18.326;2022-08-18T00:46:51;38.25;;;33.97;;
21266;SDS011;10791;53.108;18.326;2022-08-18T00:51:54;37.60;;;32.72;;
21266;SDS011;10791;53.108;18.326;2022-08-18T00:57:00;38.60;;;34.55;;
21266;SDS011;10791;53.108;18.326;2022-08-18T01:02:06;39.88;;;35.75;;
21266;SDS011;10791;53.108;18.326;2022-08-18T01:07:15;40.10;;;35.97;;
21266;SDS011;10791;53.108;18.326;2022-08-18T01:12:21;43.70;;;37.22;;
21266;SDS011;10791;53.108;18.326;2022-08-18T01:17:45;41.10;;;36.40;;
21266;SDS011;10791;53.108;18.326;2022-08-18T01:23:13;43.88;;;38.60;;
21266;SDS011;10791;53.108;18.326;2022-08-18T01:28:18;40.88;;;36.65;;
21266;SDS011;10791;53.108;18.326;2022-08-18T01:33:25;42.03;;;36.58;;
21266;SDS011;10791;53.108;18.326;2022-08-18T01:38:31;42.90;;;38.08;;
21266;SDS011;10791;53.108;18.326;2022-08-18T01:43:34;41.17;;;36.35;;
21266;SDS011;10791;53.108;18.326;2022-08-18T01:48:38;41.85;;;37.40;;
21266;SDS011;10791;53.108;18.326;2022-08-18T01:53:41;47.03;;;41.28;;
21266;SDS011;10791;53.108;18.326;2022-08-18T01:58:46;49.63;;;41.05;;
21266;SDS011;10791;53.108;18.326;2022-08-18T02:03:50;41.92;;;37.47;;
21266;SDS011;10791;53.108;18.326;2022-08-18T02:09:16;40.38;;;36.05;;
21266;SDS011;10791;53.108;18.326;2022-08-18T02:14:25;42.83;;;38.22;;
21266;SDS011;10791;53.108;18.326;2022-08-18T02:19:35;45.63;;;39.83;;
21266;SDS011;10791;53.108;18.326;2022-08-18T02:24:40;43.38;;;38.25;;
21266;SDS011;10791;53.108;18.326;2022-08-18T02:29:44;43.75;;;38.38;;
21266;SDS011;10791;53.108;18.326;2022-08-18T02:34:47;43.72;;;38.95;;
21266;SDS011;10791;53.108;18.326;2022-08-18T02:39:50;41.60;;;37.17;;
21266;SDS011;10791;53.108;18.326;2022-08-18T02:44:53;44.50;;;39.63;;
21266;SDS011;10791;53.108;18.326;2022-08-18T02:49:57;44.22;;;39.30;;
21266;SDS011;10791;53.108;18.326;2022-08-18T02:55:00;41.22;;;36.92;;
21266;SDS011;10791;53.108;18.326;2022-08-18T03:00:04;41.03;;;36.72;;
21266;SDS011;10791;53.108;18.326;2022-08-18T03:05:08;45.10;;;38.97;;
21266;SDS011;10791;53.108;18.326;2022-08-18T03:10:15;69.00;;;33.92;;
21266;SDS011;10791;53.108;18.326;2022-08-18T03:15:34;38.88;;;33.65;;
21266;SDS011;10791;53.108;18.326;2022-08-18T03:20:37;36.83;;;32.88;;
21266;SDS011;10791;53.108;18.326;2022-08-18T03:25:43;40.40;;;35.08;;
21266;SDS011;10791;53.108;18.326;2022-08-18T03:30:49;38.90;;;34.75;;
21266;SDS011;10791;53.108;18.326;2022-08-18T03:35:53;41.13;;;36.72;;
21266;SDS011;10791;53.108;18.326;2022-08-18T03:40:56;41.28;;;37.00;;
21266;SDS011;10791;53.108;18.326;2022-08-18T03:46:03;43.08;;;38.28;;
21266;SDS011;10791;53.108;18.326;2022-08-18T03:51:24;45.90;;;40.10;;
21266;SDS011;10791;53.108;18.326;2022-08-18T03:56:31;53.08;;;43.90;;
21266;SDS011;10791;53.108;18.326;2022-08-18T04:01:37;45.42;;;40.55;;
21266;SDS011;10791;53.108;18.326;2022-08-18T04:06:43;44.42;;;39.63;;
21266;SDS011;10791;53.108;18.326;2022-08-18T04:12:10;47.70;;;41.72;;
21266;SDS011;10791;53.108;18.326;2022-08-18T04:17:18;45.95;;;41.03;;
21266;SDS011;10791;53.108;18.326;2022-08-18T04:22:26;43.72;;;39.05;;
21266;SDS011;10791;53.108;18.326;2022-08-18T04:27:29;41.63;;;37.33;;
21266;SDS011;10791;53.108;18.326;2022-08-18T04:32:34;46.22;;;41.30;;
21266;SDS011;10791;53.108;18.326;2022-08-18T04:37:37;47.72;;;42.63;;
21266;SDS011;10791;53.108;18.326;2022-08-18T04:42:43;50.92;;;45.35;;
21266;SDS011;10791;53.108;18.326;2022-08-18T04:47:47;53.35;;;47.70;;
21266;SDS011;10791;53.108;18.326;2022-08-18T04:52:53;52.25;;;46.75;;
21266;SDS011;10791;53.108;18.326;2022-08-18T04:58:15;55.22;;;48.53;;
21266;SDS011;10791;53.108;18.326;2022-08-18T05:03:20;55.30;;;49.30;;
21266;SDS011;10791;53.108;18.326;2022-08-18T05:08:25;53.05;;;47.10;;
21266;SDS011;10791;53.108;18.326;2022-08-18T05:13:28;51.83;;;46.30;;
21266;SDS011;10791;53.108;18.326;2022-08-18T05:18:32;52.15;;;46.55;;
21266;SDS011;10791;53.108;18.326;2022-08-18T05:23:44;52.63;;;47.20;;
21266;SDS011;10791;53.108;18.326;2022-08-18T05:28:49;50.17;;;45.08;;
21266;SDS011;10791;53.108;18.326;2022-08-18T05:34:05;56.95;;;45.97;;
21266;SDS011;10791;53.108;18.326;2022-08-18T05:39:11;51.60;;;45.97;;
21266;SDS011;10791;53.108;18.326;2022-08-18T05:44:24;49.97;;;44.72;;
21266;SDS011;10791;53.108;18.326;2022-08-18T05:49:32;51.30;;;45.75;;
21266;SDS011;10791;53.108;18.326;2022-08-18T05:54:41;49.13;;;44.13;;
21266;SDS011;10791;53.108;18.326;2022-08-18T06:00:10;51.05;;;44.22;;
21266;SDS011;10791;53.108;18.326;2022-08-18T06:05:18;50.88;;;44.28;;
21266;SDS011;10791;53.108;18.326;2022-08-18T06:10:29;50.05;;;44.78;;
21266;SDS011;10791;53.108;18.326;2022-08-18T06:15:53;54.75;;;47.28;;
21266;SDS011;10791;53.108;18.326;2022-08-18T06:37:17;50.05;;;44.30;;
21266;SDS011;10791;53.108;18.326;2022-08-18T06:42:29;46.33;;;40.92;;
21266;SDS011;10791;53.108;18.326;2022-08-18T06:47:38;46.08;;;41.20;;
21266;SDS011;10791;53.108;18.326;2022-08-18T06:53:00;45.45;;;40.45;;
21266;SDS011;10791;53.108;18.326;2022-08-18T07:03:15;40.63;;;35.97;;
21266;SDS011;10791;53.108;18.326;2022-08-18T07:08:31;38.78;;;33.83;;
21266;SDS011;10791;53.108;18.326;2022-08-18T07:13:37;33.67;;;29.75;;
21266;SDS011;10791;53.108;18.326;2022-08-18T07:24:13;30.70;;;27.33;;
21266;SDS011;10791;53.108;18.326;2022-08-18T07:29:27;29.65;;;26.65;;
21266;SDS011;10791;53.108;18.326;2022-08-18T07:34:34;33.83;;;24.73;;
21266;SDS011;10791;53.108;18.326;2022-08-18T07:39:44;29.15;;;22.15;;
21266;SDS011;10791;53.108;18.326;2022-08-18T07:45:03;28.58;;;25.40;;
21266;SDS011;10791;53.108;18.326;2022-08-18T07:50:09;26.08;;;23.10;;
21266;SDS011;10791;53.108;18.326;2022-08-18T07:55:33;26.42;;;22.92;;
21266;SDS011;10791;53.108;18.326;2022-08-18T08:00:40;27.83;;;23.17;;
21266;SDS011;10791;53.108;18.326;2022-08-18T08:06:29;27.27;;;22.60;;
21266;SDS011;10791;53.108;18.326;2022-08-18T08:11:58;22.30;;;19.88;;
21266;SDS011;10791;53.108;18.326;2022-08-18T08:33:27;17.77;;;15.43;;
21266;SDS011;10791;53.108;18.326;2022-08-18T08:54:39;14.93;;;13.45;;
21266;SDS011;10791;53.108;18.326;2022-08-18T09:00:08;19.15;;;12.45;;
21266;SDS011;10791;53.108;18.326;2022-08-18T09:05:35;22.40;;;12.70;;
21266;SDS011;10791;53.108;18.326;2022-08-18T09:22:35;16.80;;;11.88;;
21266;SDS011;10791;53.108;18.326;2022-08-18T09:27:44;17.98;;;13.80;;
21266;SDS011;10791;53.108;18.326;2022-08-18T09:33:19;17.08;;;15.40;;
21266;SDS011;10791;53.108;18.326;2022-08-18T09:38:27;26.17;;;17.17;;
21266;SDS011;10791;53.108;18.326;2022-08-18T09:49:29;17.92;;;15.68;;
21266;SDS011;10791;53.108;18.326;2022-08-18T09:54:25;17.77;;;15.32;;
21266;SDS011;10791;53.108;18.326;2022-08-18T10:10:06;17.95;;;15.38;;
21266;SDS011;10791;53.108;18.326;2022-08-18T10:37:11;15.93;;;13.90;;
21266;SDS011;10791;53.108;18.326;2022-08-18T10:42:37;14.27;;;12.50;;
21266;SDS011;10791;53.108;18.326;2022-08-18T10:58:59;17.67;;;13.63;;
21266;SDS011;10791;53.108;18.326;2022-08-18T11:09:40;13.95;;;11.23;;
21266;SDS011;10791;53.108;18.326;2022-08-18T11:20:26;15.18;;;12.93;;
21266;SDS011;10791;53.108;18.326;2022-08-18T11:25:36;14.63;;;12.07;;
21266;SDS011;10791;53.108;18.326;2022-08-18T11:30:44;15.50;;;12.60;;
21266;SDS011;10791;53.108;18.326;2022-08-18T11:35:53;18.15;;;12.02;;
21266;SDS011;10791;53.108;18.326;2022-08-18T11:41:18;15.30;;;12.63;;
21266;SDS011;10791;53.108;18.326;2022-08-18T11:46:47;14.52;;;12.40;;
21266;SDS011;10791;53.108;18.326;2022-08-18T11:51:58;16.58;;;11.30;;
21266;SDS011;10791;53.108;18.326;2022-08-18T12:02:47;12.23;;;10.77;;
21266;SDS011;10791;53.108;18.326;2022-08-18T12:08:02;15.52;;;12.70;;
21266;SDS011;10791;53.108;18.326;2022-08-18T12:13:23;12.52;;;10.98;;
21266;SDS011;10791;53.108;18.326;2022-08-18T12:18:27;15.88;;;13.73;;
21266;SDS011;10791;53.108;18.326;2022-08-18T12:23:31;15.65;;;14.18;;
21266;SDS011;10791;53.108;18.326;2022-08-18T12:28:49;17.15;;;13.50;;
21266;SDS011;10791;53.108;18.326;2022-08-18T12:33:52;17.75;;;14.57;;
21266;SDS011;10791;53.108;18.326;2022-08-18T12:39:02;15.48;;;13.82;;
21266;SDS011;10791;53.108;18.326;2022-08-18T12:44:07;15.55;;;13.82;;
21266;SDS011;10791;53.108;18.326;2022-08-18T12:49:16;15.93;;;13.90;;
21266;SDS011;10791;53.108;18.326;2022-08-18T12:54:22;20.80;;;14.27;;
21266;SDS011;10791;53.108;18.326;2022-08-18T12:59:26;16.60;;;13.95;;
21266;SDS011;10791;53.108;18.326;2022-08-18T13:04:34;15.30;;;12.85;;
21266;SDS011;10791;53.108;18.326;2022-08-18T13:09:38;15.80;;;13.90;;
21266;SDS011;10791;53.108;18.326;2022-08-18T13:14:55;15.77;;;14.27;;
21266;SDS011;10791;53.108;18.326;2022-08-18T13:19:59;16.92;;;14.30;;
21266;SDS011;10791;53.108;18.326;2022-08-18T13:25:05;15.52;;;14.00;;
21266;SDS011;10791;53.108;18.326;2022-08-18T13:30:15;15.35;;;13.93;;
21266;SDS011;10791;53.108;18.326;2022-08-18T13:35:33;16.58;;;14.88;;
21266;SDS011;10791;53.108;18.326;2022-08-18T13:40:45;15.40;;;13.82;;
21266;SDS011;10791;53.108;18.326;2022-08-18T13:45:52;12.88;;;11.75;;
21266;SDS011;10791;53.108;18.326;2022-08-18T13:50:57;15.63;;;12.25;;
21266;SDS011;10791;53.108;18.326;2022-08-18T13:56:02;15.93;;;12.52;;
21266;SDS011;10791;53.108;18.326;2022-08-18T14:01:07;12.57;;;11.43;;
21266;SDS011;10791;53.108;18.326;2022-08-18T14:06:33;14.95;;;11.18;;
21266;SDS011;10791;53.108;18.326;2022-08-18T14:11:36;10.23;;;9.20;;
21266;SDS011;10791;53.108;18.326;2022-08-18T14:16:42;11.60;;;10.02;;
21266;SDS011;10791;53.108;18.326;2022-08-18T14:21:48;14.50;;;9.02;;
21266;SDS011;10791;53.108;18.326;2022-08-18T14:27:12;13.80;;;9.45;;
21266;SDS011;10791;53.108;18.326;2022-08-18T14:32:20;16.35;;;9.48;;
21266;SDS011;10791;53.108;18.326;2022-08-18T14:37:30;12.73;;;8.77;;
21266;SDS011;10791;53.108;18.326;2022-08-18T14:42:35;10.73;;;8.68;;
21266;SDS011;10791;53.108;18.326;2022-08-18T14:47:55;11.23;;;8.80;;
21266;SDS011;10791;53.108;18.326;2022-08-18T14:52:58;11.95;;;9.27;;
21266;SDS011;10791;53.108;18.326;2022-08-18T14:58:02;10.52;;;9.10;;
21266;SDS011;10791;53.108;18.326;2022-08-18T15:03:08;10.73;;;9.50;;
21266;SDS011;10791;53.108;18.326;2022-08-18T15:08:12;12.38;;;9.18;;
21266;SDS011;10791;53.108;18.326;2022-08-18T15:13:16;14.98;;;9.43;;
21266;SDS011;10791;53.108;18.326;2022-08-18T15:18:19;10.23;;;8.25;;
21266;SDS011;10791;53.108;18.326;2022-08-18T15:23:24;14.15;;;9.20;;
21266;SDS011;10791;53.108;18.326;2022-08-18T15:28:47;14.55;;;8.95;;
21266;SDS011;10791;53.108;18.326;2022-08-18T15:33:51;11.30;;;9.15;;
21266;SDS011;10791;53.108;18.326;2022-08-18T15:38:58;11.27;;;8.70;;
21266;SDS011;10791;53.108;18.326;2022-08-18T15:44:03;9.23;;;8.32;;
21266;SDS011;10791;53.108;18.326;2022-08-18T15:49:09;10.35;;;7.20;;
21266;SDS011;10791;53.108;18.326;2022-08-18T15:54:16;11.57;;;7.50;;
21266;SDS011;10791;53.108;18.326;2022-08-18T15:59:21;8.95;;;7.45;;
21266;SDS011;10791;53.108;18.326;2022-08-18T16:04:35;12.10;;;7.90;;
21266;SDS011;10791;53.108;18.326;2022-08-18T16:09:39;11.45;;;7.88;;
21266;SDS011;10791;53.108;18.326;2022-08-18T16:14:42;10.65;;;8.13;;
21266;SDS011;10791;53.108;18.326;2022-08-18T16:19:46;8.98;;;8.18;;
21266;SDS011;10791;53.108;18.326;2022-08-18T16:24:50;12.30;;;9.50;;
21266;SDS011;10791;53.108;18.326;2022-08-18T16:29:55;12.30;;;9.32;;
21266;SDS011;10791;53.108;18.326;2022-08-18T16:34:59;12.70;;;10.07;;
21266;SDS011;10791;53.108;18.326;2022-08-18T16:40:03;11.43;;;9.45;;
21266;SDS011;10791;53.108;18.326;2022-08-18T16:45:07;10.95;;;9.85;;
21266;SDS011;10791;53.108;18.326;2022-08-18T16:50:15;11.55;;;10.32;;
21266;SDS011;10791;53.108;18.326;2022-08-18T16:55:20;13.57;;;10.55;;
21266;SDS011;10791;53.108;18.326;2022-08-18T17:00:23;11.80;;;10.70;;
21266;SDS011;10791;53.108;18.326;2022-08-18T17:05:59;12.32;;;11.02;;
21266;SDS011;10791;53.108;18.326;2022-08-18T17:11:08;11.88;;;10.77;;
21266;SDS011;10791;53.108;18.326;2022-08-18T17:16:17;14.40;;;12.07;;
21266;SDS011;10791;53.108;18.326;2022-08-18T17:21:28;14.55;;;11.88;;
21266;SDS011;10791;53.108;18.326;2022-08-18T17:31:52;19.13;;;12.80;;
21266;SDS011;10791;53.108;18.326;2022-08-18T17:37:06;20.73;;;16.30;;
21266;SDS011;10791;53.108;18.326;2022-08-18T17:42:16;25.55;;;15.85;;
21266;SDS011;10791;53.108;18.326;2022-08-18T17:47:30;16.30;;;13.48;;
21266;SDS011;10791;53.108;18.326;2022-08-18T17:52:53;19.17;;;13.73;;
21266;SDS011;10791;53.108;18.326;2022-08-18T17:58:26;20.25;;;12.63;;
21266;SDS011;10791;53.108;18.326;2022-08-18T18:03:45;27.50;;;13.02;;
21266;SDS011;10791;53.108;18.326;2022-08-18T18:13:57;18.85;;;14.45;;
21266;SDS011;10791;53.108;18.326;2022-08-18T18:19:03;15.90;;;13.95;;
21266;SDS011;10791;53.108;18.326;2022-08-18T18:34:21;16.88;;;13.93;;
21266;SDS011;10791;53.108;18.326;2022-08-18T18:39:32;18.35;;;15.32;;
21266;SDS011;10791;53.108;18.326;2022-08-18T18:44:37;22.42;;;16.08;;
21266;SDS011;10791;53.108;18.326;2022-08-18T18:50:15;19.27;;;16.05;;
21266;SDS011;10791;53.108;18.326;2022-08-18T18:55:30;22.58;;;18.63;;
21266;SDS011;10791;53.108;18.326;2022-08-18T19:00:47;25.50;;;18.08;;
21266;SDS011;10791;53.108;18.326;2022-08-18T19:17:05;22.75;;;19.83;;
21266;SDS011;10791;53.108;18.326;2022-08-18T19:22:24;24.52;;;19.73;;
21266;SDS011;10791;53.108;18.326;2022-08-18T19:33:03;32.10;;;18.77;;
21266;SDS011;10791;53.108;18.326;2022-08-18T19:38:20;24.67;;;18.35;;
21266;SDS011;10791;53.108;18.326;2022-08-18T19:43:31;19.58;;;17.50;;
21266;SDS011;10791;53.108;18.326;2022-08-18T19:48:53;19.80;;;17.58;;
21266;SDS011;10791;53.108;18.326;2022-08-18T20:15:58;26.08;;;18.73;;
21266;SDS011;10791;53.108;18.326;2022-08-18T20:21:46;21.50;;;19.17;;
21266;SDS011;10791;53.108;18.326;2022-08-18T20:38:26;21.23;;;19.05;;
21266;SDS011;10791;53.108;18.326;2022-08-18T20:43:40;24.65;;;22.05;;
21266;SDS011;10791;53.108;18.326;2022-08-18T20:59:37;26.75;;;21.90;;
21266;SDS011;10791;53.108;18.326;2022-08-18T21:04:50;32.67;;;24.05;;
21266;SDS011;10791;53.108;18.326;2022-08-18T21:10:07;25.45;;;20.33;;
21266;SDS011;10791;53.108;18.326;2022-08-18T21:15:26;26.10;;;20.08;;
21266;SDS011;10791;53.108;18.326;2022-08-18T21:20:36;27.15;;;19.67;;
21266;SDS011;10791;53.108;18.326;2022-08-18T21:25:48;29.77;;;20.38;;
21266;SDS011;10791;53.108;18.326;2022-08-18T21:31:02;22.50;;;19.17;;
21266;SDS011;10791;53.108;18.326;2022-08-18T21:36:30;22.23;;;19.95;;
21266;SDS011;10791;53.108;18.326;2022-08-18T21:41:41;28.65;;;21.38;;
21266;SDS011;10791;53.108;18.326;2022-08-18T21:46:48;27.75;;;21.02;;
21266;SDS011;10791;53.108;18.326;2022-08-18T21:51:52;22.40;;;19.08;;
21266;SDS011;10791;53.108;18.326;2022-08-18T22:02:22;23.33;;;20.75;;
21266;SDS011;10791;53.108;18.326;2022-08-18T22:07:25;24.80;;;22.20;;
21266;SDS011;10791;53.108;18.326;2022-08-18T22:12:36;22.45;;;20.27;;
21266;SDS011;10791;53.108;18.326;2022-08-18T22:34:11;27.75;;;24.35;;
21266;SDS011;10791;53.108;18.326;2022-08-18T22:39:33;29.55;;;23.30;;
21266;SDS011;10791;53.108;18.326;2022-08-18T22:44:40;27.85;;;23.05;;
21266;SDS011;10791;53.108;18.326;2022-08-18T22:49:44;29.83;;;23.08;;
21266;SDS011;10791;53.108;18.326;2022-08-18T22:54:48;31.95;;;24.08;;
21266;SDS011;10791;53.108;18.326;2022-08-18T22:59:52;27.52;;;24.63;;
21266;SDS011;10791;53.108;18.326;2022-08-18T23:04:58;29.23;;;22.77;;
21266;SDS011;10791;53.108;18.326;2022-08-18T23:10:03;33.72;;;24.67;;
21266;SDS011;10791;53.108;18.326;2022-08-18T23:15:15;28.85;;;22.20;;
21266;SDS011;10791;53.108;18.326;2022-08-18T23:20:19;27.80;;;24.98;;
21266;SDS011;10791;53.108;18.326;2022-08-18T23:25:27;27.60;;;24.33;;
21266;SDS011;10791;53.108;18.326;2022-08-18T23:30:32;26.90;;;23.92;;
21266;SDS011;10791;53.108;18.326;2022-08-18T23:35:36;31.45;;;24.83;;
21266;SDS011;10791;53.108;18.326;2022-08-18T23:40:42;26.70;;;23.60;;
21266;SDS011;10791;53.108;18.326;2022-08-18T23:45:47;29.05;;;25.70;;
21266;SDS011;10791;53.108;18.326;2022-08-18T23:50:52;30.88;;;23.85;;
21266;SDS011;10791;53.108;18.326;2022-08-18T23:55:56;26.70;;;23.63;;
